Private Wetterstation Nrnberg - Katzwang
Wetterdaten: September 2010
Datum Temp. A. Feuchte A. Luftdruck Regen Wind Richtung Taupunkt Windchill Windben
01.09.2010 13,3 C 79 % 1017 hPa 0,0 l/m 2,2 km/h NO 9,5 C 13,0 C 3,2 km/h
02.09.2010 14,3 C 77 % 1016 hPa 0,0 l/m 2,6 km/h N-NO 10,1 C 14,3 C 3,6 km/h
03.09.2010 15,7 C 77 % 1017 hPa 0,0 l/m 1,4 km/h NO 11,5 C 15,7 C 2,4 km/h
04.09.2010 14,1 C 82 % 1017 hPa 4,1 l/m 1,5 km/h N-NO 10,8 C 14,1 C 2,5 km/h
05.09.2010 12,4 C 78 % 1019 hPa 0,0 l/m 2,6 km/h NO 8,4 C 11,9 C 3,6 km/h
06.09.2010 12,5 C 68 % 1015 hPa 0,0 l/m 5,8 km/h O 6,3 C 12,0 C 6,8 km/h
07.09.2010 13,3 C 80 % 1006 hPa 1,0 l/m 9,5 km/h O 9,5 C 11,1 C 13,3 km/h
08.09.2010 13,7 C 88 % 1006 hPa 2,6 l/m 2,1 km/h NO 11,7 C 13,7 C 3,1 km/h
09.09.2010 13,2 C 86 % 1015 hPa 0,0 l/m 2,0 km/h W-NW 10,9 C 13,2 C 3,0 km/h
10.09.2010 15,1 C 83 % 1020 hPa 0,5 l/m 1,5 km/h W-NW 12,0 C 15,1 C 2,5 km/h
11.09.2010 16,0 C 74 % 1019 hPa 0,0 l/m 0,0 km/h NO 10,9 C 16,0 C 1,0 km/h
12.09.2010 16,2 C 74 % 1016 hPa 0,0 l/m 4,1 km/h N-NO 11,2 C 15,6 C 5,1 km/h
13.09.2010 12,5 C 90 % 1023 hPa 5,2 l/m 2,7 km/h W-NW 10,9 C 11,9 C 3,7 km/h
14.09.2010 13,0 C 88 % 1019 hPa 0,5 l/m 2,7 km/h N-NO 11,1 C 13,0 C 3,7 km/h
15.09.2010 14,0 C 82 % 1010 hPa 0,5 l/m 7,7 km/h W-NW 11,0 C 13,2 C 8,7 km/h
16.09.2010 13,0 C 75 % 1010 hPa 0,0 l/m 2,9 km/h W-NW 8,4 C 12,3 C 3,9 km/h
17.09.2010 11,3 C 75 % 1012 hPa 0,0 l/m 0,0 km/h NW 6,7 C 11,3 C 1,0 km/h
18.09.2010 9,6 C 74 % 1015 hPa 0,0 l/m 0,0 km/h N 5,0 C 9,6 C 1,0 km/h
19.09.2010 9,1 C 75 % 1017 hPa 0,0 l/m 0,0 km/h NO 4,6 C 9,1 C 1,0 km/h
20.09.2010 12,8 C 73 % 1016 hPa 0,0 l/m 1,5 km/h NO 7,7 C 12,8 C 2,5 km/h
21.09.2010 13,3 C 69 % 1019 hPa 0,0 l/m 2,7 km/h N-NO 6,9 C 13,0 C 3,7 km/h
22.09.2010 14,2 C 73 % 1019 hPa 0,0 l/m 3,1 km/h O 9,1 C 14,0 C 4,1 km/h
23.09.2010 16,0 C 75 % 1012 hPa 0,0 l/m 1,4 km/h NO 11,4 C 16,0 C 2,4 km/h
24.09.2010 16,9 C 76 % 1003 hPa 6,2 l/m 4,6 km/h O-NO 12,4 C 16,6 C 5,6 km/h
25.09.2010 11,1 C 92 % 1002 hPa 14,0 l/m 0,7 km/h W-NW 9,8 C 11,1 C 1,7 km/h
26.09.2010 9,8 C 82 % 1007 hPa 0,0 l/m 0,9 km/h W-NW 6,7 C 9,8 C 1,9 km/h
27.09.2010 10,8 C 75 % 1009 hPa 0,0 l/m 6,1 km/h W-NW 6,4 C 10,7 C 7,1 km/h
28.09.2010 9,6 C 91 % 1014 hPa 6,7 l/m 1,7 km/h W-NW 8,2 C 9,5 C 2,7 km/h
29.09.2010 9,9 C 87 % 1017 hPa 2,1 l/m 0,0 km/h W-NW 7,7 C 9,9 C 1,0 km/h
30.09.2010 10,4 C 83 % 1015 hPa 0,0 l/m 5,1 km/h O-NO 7,6 C 10,4 C 6,1 km/h
Min-Datum 19.09.10 21.09.10 24.09.10 11 Tage 01.09.10 - 19.09.10 27.09.10 01.09.10
Min-Zeit 07:10 14:30 14:40 - 00:00 - 07:10 04:10 00:00
Minimum 2,9 C 39 % 1000 hPa - 0,0 km/h - 1,0 C 2,3 C 1,0 km/h
Max-Datum 24.09.10 01.09.10 13.09.10 25.09.10 16.09.10 - 24.09.10 24.09.10 16.09.10
Max-Zeit 15:20 09:20 21:00 00:30 16:40 - 12:30 15:20 10:10
Maximum 24,5 C 93 % 1025 hPa 14,0 l/m 25,3 km/h
W-NW
- 15,9 C 24,5 C 49,6 km/h
W-NW
Durchschnitt 12,9 C 79 % 1014 hPa #43,5 l/m 2,6 km/h W-NW 9,1 C 12,7 C 3,7 km/h

Durchschnitt Minimum Temp.8,1 C
Durchschnitt Maximum Temp.18,4 C